createdAt,value
2023-02-13T00:01:24.906Z,7.80
2023-02-13T00:03:53.250Z,7.80
2023-02-13T00:06:21.406Z,7.90
2023-02-13T00:08:50.959Z,7.80
2023-02-13T00:11:20.532Z,7.80
2023-02-13T00:13:48.719Z,7.80
2023-02-13T00:16:16.958Z,7.70
2023-02-13T00:18:45.500Z,7.70
2023-02-13T00:21:16.431Z,7.60
2023-02-13T00:23:44.572Z,7.60
2023-02-13T00:26:15.862Z,7.60
2023-02-13T00:28:46.853Z,7.60
2023-02-13T00:31:17.308Z,7.60
2023-02-13T00:33:46.011Z,7.50
2023-02-13T00:36:15.594Z,7.50
2023-02-13T00:38:47.313Z,7.50
2023-02-13T00:41:17.955Z,7.50
2023-02-13T00:43:46.760Z,7.50
2023-02-13T00:46:15.321Z,7.50
2023-02-13T00:48:43.795Z,7.60
2023-02-13T00:51:12.349Z,7.60
2023-02-13T00:53:41.089Z,7.60
2023-02-13T00:56:09.509Z,7.50
2023-02-13T00:58:39.657Z,7.50
2023-02-13T05:04:16.472Z,7.00
2023-02-13T05:06:45.008Z,7.00
2023-02-13T05:09:13.264Z,7.00
2023-02-13T05:11:41.392Z,7.00
2023-02-13T05:14:10.948Z,7.00
2023-02-13T05:16:39.266Z,6.90
2023-02-13T05:19:07.427Z,6.90
2023-02-13T05:21:54.550Z,6.90
2023-02-13T05:24:22.921Z,6.90
2023-02-13T05:26:51.063Z,6.90
2023-02-13T05:29:22.761Z,6.90
2023-02-13T05:31:53.771Z,6.90
2023-02-13T05:34:22.219Z,6.90
2023-02-13T05:36:52.145Z,6.90
2023-02-13T05:39:20.535Z,6.90
2023-02-13T05:41:49.769Z,7.00
2023-02-13T05:44:18.293Z,7.00
2023-02-13T05:46:46.690Z,7.00
2023-02-13T05:49:16.301Z,7.00
2023-02-13T05:51:46.509Z,7.00
2023-02-13T05:54:16.196Z,7.00
2023-02-13T05:56:44.266Z,7.00
2023-02-13T05:59:12.416Z,7.00
2023-02-13T06:01:40.486Z,7.00
2023-02-13T06:04:08.694Z,7.10
2023-02-13T06:06:36.828Z,7.10
2023-02-13T06:09:05.391Z,7.00
2023-02-13T06:11:35.015Z,7.00
2023-02-13T06:14:04.515Z,7.00
2023-02-13T06:16:32.628Z,7.00
2023-02-13T06:19:00.889Z,7.00
2023-02-13T06:21:33.357Z,7.00
2023-02-13T06:24:01.603Z,7.00
2023-02-13T06:26:29.914Z,7.00
2023-02-13T06:28:59.546Z,7.00
2023-02-13T06:31:27.888Z,7.20
2023-02-13T06:33:56.166Z,7.20
2023-02-13T06:36:24.494Z,7.10
2023-02-13T06:38:52.664Z,7.20
2023-02-13T06:41:20.926Z,7.20
2023-02-13T06:43:49.200Z,7.20
2023-02-13T06:46:18.822Z,7.20
2023-02-13T06:48:46.966Z,7.20
2023-02-13T06:51:15.455Z,7.20
2023-02-13T06:53:43.607Z,7.30
2023-02-13T06:56:12.113Z,7.30
2023-02-13T06:58:40.321Z,7.20
2023-02-13T07:01:08.683Z,7.20
2023-02-13T07:03:38.296Z,7.20
2023-02-13T07:06:06.866Z,7.20
2023-02-13T07:08:35.250Z,7.20
2023-02-13T07:11:03.410Z,7.20
2023-02-13T07:13:31.774Z,7.20
2023-02-13T07:16:02.253Z,7.30
2023-02-13T07:18:30.530Z,7.30
2023-02-13T07:21:00.857Z,7.30
2023-02-13T07:23:29.025Z,7.20
2023-02-13T07:25:59.654Z,7.30
2023-02-13T07:28:27.918Z,7.30
2023-02-13T07:30:57.101Z,7.30
2023-02-13T07:33:25.940Z,7.30
2023-02-13T07:35:54.326Z,7.30
2023-02-13T07:38:23.916Z,7.30
2023-02-13T07:40:52.433Z,7.40
2023-02-13T07:43:21.097Z,7.40
2023-02-13T07:45:49.267Z,7.40
2023-02-13T07:48:17.495Z,7.50
2023-02-13T07:50:51.181Z,7.50
2023-02-13T07:53:19.461Z,7.50
2023-02-13T07:55:48.957Z,7.50
2023-02-13T07:58:17.369Z,7.60
2023-02-13T08:00:45.583Z,7.60
2023-02-13T08:03:13.874Z,7.60
2023-02-13T08:05:42.163Z,7.70
2023-02-13T08:08:12.937Z,7.70
2023-02-13T08:10:59.247Z,7.70
2023-02-13T08:13:29.257Z,7.60
2023-02-13T08:15:57.681Z,7.70
2023-02-13T08:18:26.044Z,7.70
2023-02-13T08:20:54.202Z,7.70
2023-02-13T08:23:22.290Z,7.70
2023-02-13T08:25:50.397Z,7.70
2023-02-13T08:28:18.590Z,7.70
2023-02-13T08:30:48.122Z,7.70
2023-02-13T08:33:16.246Z,7.70
2023-02-13T08:35:44.300Z,7.80
2023-02-13T08:38:12.463Z,7.80
2023-02-13T08:40:40.644Z,7.70
2023-02-13T08:43:08.815Z,7.80
2023-02-13T08:45:40.034Z,7.80
2023-02-13T08:48:09.766Z,7.80
2023-02-13T08:50:37.982Z,7.80
2023-02-13T08:53:06.269Z,7.80
2023-02-13T08:55:36.903Z,7.80
2023-02-13T08:58:06.273Z,7.90
2023-02-13T09:00:34.468Z,7.90
2023-02-13T09:03:05.546Z,7.90
2023-02-13T09:05:36.154Z,7.90
2023-02-13T09:08:04.819Z,7.90
2023-02-13T09:10:33.883Z,7.80
2023-02-13T09:13:02.403Z,7.80
2023-02-13T09:15:30.820Z,7.80
2023-02-13T09:17:59.119Z,7.80
2023-02-13T09:20:27.308Z,7.80
2023-02-13T09:22:57.977Z,7.80
2023-02-13T09:25:26.384Z,7.80
2023-02-13T09:27:54.650Z,7.80
2023-02-13T09:30:25.884Z,7.80
2023-02-13T09:32:54.935Z,7.80
2023-02-13T09:35:23.925Z,7.80
2023-02-13T09:37:52.092Z,7.80
2023-02-13T09:40:26.120Z,7.80
2023-02-13T09:42:56.120Z,7.90
2023-02-13T09:45:24.604Z,7.90
2023-02-13T09:47:53.011Z,7.90
2023-02-13T09:50:25.133Z,7.90
2023-02-13T09:52:55.366Z,7.90
2023-02-13T09:55:29.995Z,7.90
2023-02-13T09:58:06.397Z,7.70
2023-02-13T15:03:12.189Z,7.70
2023-02-13T15:05:42.588Z,7.70
2023-02-13T15:08:15.033Z,7.50
2023-02-13T15:10:47.914Z,7.50
2023-02-13T15:13:18.421Z,7.50
2023-02-13T15:15:52.446Z,7.50
2023-02-13T15:18:23.256Z,7.50
2023-02-13T15:20:56.406Z,7.50
2023-02-13T15:23:30.114Z,7.50
2023-02-13T15:26:00.659Z,7.50
2023-02-13T15:28:30.218Z,7.50
2023-02-13T15:31:01.026Z,7.50
2023-02-13T15:33:33.589Z,7.40
2023-02-13T15:36:05.505Z,7.40
2023-02-13T15:38:36.723Z,7.40
2023-02-13T15:41:09.274Z,7.40
2023-02-13T15:43:44.067Z,7.40
2023-02-13T15:46:21.433Z,7.30
2023-02-13T15:48:49.864Z,7.30
2023-02-13T15:51:22.692Z,7.40
2023-02-13T15:53:54.069Z,7.20
2023-02-13T15:56:22.302Z,7.20
2023-02-13T15:58:51.144Z,7.20
2023-02-13T16:01:19.605Z,7.20
2023-02-13T16:03:50.802Z,7.20
2023-02-13T16:06:22.398Z,7.20
2023-02-13T16:08:53.661Z,7.10
2023-02-13T16:11:31.198Z,7.10
2023-02-13T16:14:18.488Z,7.10
2023-02-13T16:16:51.402Z,7.10
2023-02-13T16:19:29.103Z,7.10
2023-02-13T16:22:00.637Z,7.10
2023-02-13T16:24:31.954Z,7.10
2023-02-13T16:27:00.436Z,7.10
2023-02-13T16:29:28.917Z,7.10
2023-02-13T16:32:07.130Z,7.10
2023-02-13T16:34:38.050Z,7.10
2023-02-13T16:37:29.377Z,7.20
2023-02-13T16:39:57.569Z,7.10
2023-02-13T16:42:26.398Z,7.10
2023-02-13T16:45:24.708Z,7.10
2023-02-13T16:48:02.556Z,7.10
2023-02-13T16:50:30.903Z,7.10
2023-02-13T16:53:03.695Z,7.10
2023-02-13T16:55:31.960Z,7.00
2023-02-13T16:58:04.619Z,7.00
2023-02-13T17:00:33.514Z,6.90
2023-02-13T17:03:10.801Z,6.90
2023-02-13T17:05:38.904Z,6.90
2023-02-13T17:08:08.937Z,6.90
2023-02-13T17:10:42.082Z,6.90
2023-02-13T17:13:17.579Z,6.90
2023-02-13T17:15:47.654Z,6.90
2023-02-13T17:18:15.847Z,6.90
2023-02-13T17:20:46.278Z,6.90
2023-02-13T17:23:18.935Z,6.90
2023-02-13T17:25:48.000Z,6.90
2023-02-13T17:28:21.421Z,6.90
2023-02-13T17:30:51.009Z,6.90
2023-02-13T17:33:22.879Z,6.90
2023-02-13T17:35:51.183Z,6.90
2023-02-13T17:38:21.056Z,6.90
2023-02-13T17:40:50.325Z,6.90
2023-02-13T17:43:20.192Z,6.90
2023-02-13T17:45:49.763Z,6.90
2023-02-13T17:48:18.214Z,6.90
2023-02-13T17:50:52.449Z,6.90
2023-02-13T17:53:26.278Z,6.90
2023-02-13T17:55:54.668Z,6.90
2023-02-13T17:58:23.169Z,6.90
2023-02-13T18:00:51.463Z,6.90
2023-02-13T18:03:20.551Z,6.90
2023-02-13T18:05:49.597Z,6.90
2023-02-13T18:08:18.028Z,6.90
2023-02-13T18:10:50.439Z,6.80
2023-02-13T18:13:19.014Z,6.80
2023-02-13T18:15:47.179Z,6.80
2023-02-13T18:18:17.620Z,6.80
2023-02-13T18:20:46.794Z,6.80
2023-02-13T18:23:15.002Z,6.70
2023-02-13T18:25:43.593Z,6.80
2023-02-13T18:28:13.148Z,6.80
2023-02-13T18:30:43.679Z,6.80
2023-02-13T18:33:11.943Z,6.80
2023-02-13T18:35:40.113Z,6.70
2023-02-13T18:38:08.315Z,6.70
2023-02-13T18:40:37.174Z,6.70
2023-02-13T18:43:07.580Z,6.70
2023-02-13T18:45:39.205Z,6.70
2023-02-13T18:48:09.336Z,6.80
2023-02-13T18:50:39.905Z,6.70
2023-02-13T18:53:08.394Z,6.70
2023-02-13T18:55:36.498Z,6.70
2023-02-13T18:58:04.801Z,6.70
2023-02-13T19:00:33.068Z,6.70
2023-02-13T19:03:02.964Z,6.70
2023-02-13T19:05:31.500Z,6.70
2023-02-13T19:08:00.893Z,6.60
2023-02-13T19:10:29.167Z,6.60
2023-02-13T19:12:57.357Z,6.60
2023-02-13T19:15:25.808Z,6.60
2023-02-13T19:17:57.104Z,6.60
2023-02-13T19:20:26.927Z,6.60
2023-02-13T19:22:55.067Z,6.60
2023-02-13T19:25:23.448Z,6.60
2023-02-13T19:27:51.672Z,6.60
2023-02-13T19:30:19.883Z,6.60
2023-02-13T19:32:48.104Z,6.60
2023-02-13T19:35:16.283Z,6.60
2023-02-13T19:37:45.817Z,6.70
2023-02-13T19:40:15.193Z,6.60
2023-02-13T19:42:45.931Z,6.70
2023-02-13T19:45:14.156Z,6.70
2023-02-13T19:47:42.448Z,6.60
2023-02-13T19:50:11.360Z,6.60
2023-02-13T19:52:39.540Z,6.60
2023-02-13T19:55:09.606Z,6.60
2023-02-13T19:57:37.845Z,6.60
2023-02-13T20:00:09.305Z,6.60
2023-02-13T20:02:40.605Z,6.60
2023-02-13T20:05:09.638Z,6.50
2023-02-13T20:07:37.882Z,6.60
2023-02-13T20:10:09.572Z,6.50
2023-02-13T20:12:38.166Z,6.50
2023-02-13T20:15:06.827Z,6.50
2023-02-13T20:17:37.845Z,6.50
2023-02-13T20:20:08.428Z,6.50
2023-02-13T20:22:36.587Z,6.50
2023-02-13T20:25:05.452Z,6.50
2023-02-13T20:30:06.783Z,6.50
2023-02-13T20:32:35.361Z,6.50
2023-02-13T20:35:03.488Z,6.40
2023-02-13T20:37:32.026Z,6.40
2023-02-13T20:40:00.187Z,6.40
2023-02-13T20:42:28.401Z,6.40
2023-02-13T20:44:58.301Z,6.40
2023-02-13T20:47:26.420Z,6.40
2023-02-13T20:49:54.566Z,6.30
2023-02-13T20:52:22.770Z,6.30
2023-02-13T20:54:50.868Z,6.30
2023-02-13T20:57:19.203Z,6.30
2023-02-13T20:59:47.283Z,6.30
2023-02-13T21:02:19.335Z,6.30
2023-02-13T21:04:47.612Z,6.30
2023-02-13T21:07:26.815Z,6.30
2023-02-13T21:09:55.010Z,6.30
2023-02-13T21:12:23.337Z,6.30
2023-02-13T21:14:51.922Z,6.30
2023-02-13T21:17:21.893Z,6.30
2023-02-13T21:19:50.988Z,6.20
2023-02-13T21:22:19.177Z,6.30
2023-02-13T21:24:47.360Z,6.30
2023-02-13T21:27:15.535Z,6.20
2023-02-13T21:29:43.727Z,6.20
2023-02-13T21:32:11.926Z,6.20
2023-02-13T21:34:41.500Z,6.20
2023-02-13T21:37:09.647Z,6.10
2023-02-13T21:39:40.024Z,6.10
2023-02-13T21:42:08.193Z,6.20
2023-02-13T21:44:36.273Z,6.20
2023-02-13T21:47:07.312Z,6.10
2023-02-13T21:49:35.880Z,6.10
2023-02-13T21:52:05.691Z,6.10
2023-02-13T21:54:36.543Z,6.10
2023-02-13T21:57:07.203Z,6.10
2023-02-13T21:59:35.599Z,6.10
2023-02-13T22:02:03.852Z,6.10
2023-02-13T22:04:31.981Z,6.10
2023-02-13T22:07:00.128Z,6.00
2023-02-13T22:09:29.691Z,6.00
2023-02-13T22:11:58.229Z,6.00
2023-02-13T22:14:26.363Z,6.00
2023-02-13T22:16:54.494Z,6.00
2023-02-13T22:19:22.786Z,6.00
2023-02-13T22:21:51.252Z,6.00
2023-02-13T22:24:19.337Z,5.90
2023-02-13T22:26:48.881Z,5.90
2023-02-13T22:29:18.490Z,5.90
2023-02-13T22:31:49.204Z,5.90
2023-02-13T22:34:17.330Z,5.90
2023-02-13T22:36:45.365Z,5.90
2023-02-13T22:39:13.853Z,5.90
2023-02-13T22:41:44.451Z,5.90
2023-02-13T22:44:14.144Z,5.80
2023-02-13T22:46:42.436Z,5.80
2023-02-13T22:49:10.702Z,5.90
2023-02-13T22:51:39.033Z,5.90
2023-02-13T22:54:07.919Z,5.80
2023-02-13T22:56:36.433Z,5.80
2023-02-13T22:59:04.928Z,5.90
2023-02-13T23:01:34.391Z,5.90
2023-02-13T23:04:05.027Z,5.90
2023-02-13T23:06:33.148Z,5.80
2023-02-13T23:09:01.284Z,5.80
2023-02-13T23:11:47.246Z,5.90
2023-02-13T23:14:16.280Z,5.90
2023-02-13T23:17:05.694Z,5.80
2023-02-13T23:19:34.161Z,5.80
2023-02-13T23:22:02.764Z,5.80
2023-02-13T23:24:31.540Z,5.80
2023-02-13T23:27:00.382Z,5.80
2023-02-13T23:29:28.640Z,5.70
2023-02-13T23:31:58.547Z,5.80
2023-02-13T23:34:26.811Z,5.80
2023-02-13T23:36:54.873Z,5.70
2023-02-13T23:39:24.195Z,5.70
2023-02-13T23:41:52.440Z,5.70
2023-02-13T23:44:20.739Z,5.70
2023-02-13T23:46:48.875Z,5.70
2023-02-13T23:49:18.597Z,5.60
2023-02-13T23:51:46.699Z,5.60
2023-02-13T23:54:18.820Z,5.60
2023-02-13T23:56:47.061Z,5.60
2023-02-13T23:59:17.915Z,5.60
